sensor_id;sensor_type;location;lat;lon;timestamp;P1;durP1;ratioP1;P2;durP2;ratioP2
43152;SDS011;28756;49.064;9.290;2023-09-12T00:02:06;7.78;;;3.80;;
43152;SDS011;28756;49.064;9.290;2023-09-12T00:04:32;6.50;;;3.15;;
43152;SDS011;28756;49.064;9.290;2023-09-12T00:06:58;7.45;;;3.97;;
43152;SDS011;28756;49.064;9.290;2023-09-12T00:09:23;6.85;;;3.45;;
43152;SDS011;28756;49.064;9.290;2023-09-12T00:11:49;8.45;;;3.47;;
43152;SDS011;28756;49.064;9.290;2023-09-12T00:14:15;8.23;;;3.85;;
43152;SDS011;28756;49.064;9.290;2023-09-12T00:16:42;9.52;;;4.20;;
43152;SDS011;28756;49.064;9.290;2023-09-12T00:19:08;6.53;;;3.40;;
43152;SDS011;28756;49.064;9.290;2023-09-12T00:21:34;6.45;;;3.70;;
43152;SDS011;28756;49.064;9.290;2023-09-12T00:24:00;5.47;;;3.33;;
43152;SDS011;28756;49.064;9.290;2023-09-12T00:26:25;7.88;;;3.58;;
43152;SDS011;28756;49.064;9.290;2023-09-12T00:28:51;6.85;;;3.88;;
43152;SDS011;28756;49.064;9.290;2023-09-12T00:31:17;7.00;;;3.80;;
43152;SDS011;28756;49.064;9.290;2023-09-12T00:33:43;5.40;;;3.45;;
43152;SDS011;28756;49.064;9.290;2023-09-12T00:36:08;7.65;;;3.92;;
43152;SDS011;28756;49.064;9.290;2023-09-12T00:38:34;6.20;;;3.78;;
43152;SDS011;28756;49.064;9.290;2023-09-12T00:41:00;5.95;;;3.28;;
43152;SDS011;28756;49.064;9.290;2023-09-12T00:43:25;7.10;;;3.72;;
43152;SDS011;28756;49.064;9.290;2023-09-12T00:45:51;13.23;;;4.20;;
43152;SDS011;28756;49.064;9.290;2023-09-12T00:48:18;6.65;;;3.83;;
43152;SDS011;28756;49.064;9.290;2023-09-12T00:50:45;8.02;;;3.58;;
43152;SDS011;28756;49.064;9.290;2023-09-12T00:53:12;6.20;;;3.40;;
43152;SDS011;28756;49.064;9.290;2023-09-12T00:55:40;8.00;;;3.60;;
43152;SDS011;28756;49.064;9.290;2023-09-12T00:58:11;6.50;;;3.63;;
43152;SDS011;28756;49.064;9.290;2023-09-12T01:00:38;6.57;;;3.65;;
43152;SDS011;28756;49.064;9.290;2023-09-12T01:03:06;8.95;;;3.90;;
43152;SDS011;28756;49.064;9.290;2023-09-12T01:05:32;9.88;;;3.75;;
43152;SDS011;28756;49.064;9.290;2023-09-12T01:07:59;6.93;;;3.45;;
43152;SDS011;28756;49.064;9.290;2023-09-12T01:10:25;9.43;;;4.20;;
43152;SDS011;28756;49.064;9.290;2023-09-12T01:12:52;10.18;;;3.60;;
43152;SDS011;28756;49.064;9.290;2023-09-12T01:15:18;5.22;;;3.50;;
43152;SDS011;28756;49.064;9.290;2023-09-12T01:17:44;7.93;;;3.70;;
43152;SDS011;28756;49.064;9.290;2023-09-12T01:20:14;7.35;;;3.92;;
43152;SDS011;28756;49.064;9.290;2023-09-12T01:28:57;4.65;;;3.20;;
43152;SDS011;28756;49.064;9.290;2023-09-12T01:31:23;7.97;;;3.47;;
43152;SDS011;28756;49.064;9.290;2023-09-12T01:33:54;9.77;;;4.07;;
43152;SDS011;28756;49.064;9.290;2023-09-12T01:36:21;6.38;;;3.47;;
43152;SDS011;28756;49.064;9.290;2023-09-12T01:38:47;6.60;;;3.20;;
43152;SDS011;28756;49.064;9.290;2023-09-12T01:41:13;10.98;;;3.85;;
43152;SDS011;28756;49.064;9.290;2023-09-12T01:43:39;5.47;;;3.50;;
43152;SDS011;28756;49.064;9.290;2023-09-12T01:46:06;7.63;;;3.40;;
43152;SDS011;28756;49.064;9.290;2023-09-12T01:48:33;5.80;;;3.40;;
43152;SDS011;28756;49.064;9.290;2023-09-12T01:51:01;6.25;;;3.20;;
43152;SDS011;28756;49.064;9.290;2023-09-12T01:53:28;8.55;;;3.78;;
43152;SDS011;28756;49.064;9.290;2023-09-12T01:55:56;6.18;;;3.88;;
43152;SDS011;28756;49.064;9.290;2023-09-12T01:58:24;6.53;;;3.60;;
43152;SDS011;28756;49.064;9.290;2023-09-12T02:00:51;8.18;;;3.38;;
43152;SDS011;28756;49.064;9.290;2023-09-12T02:03:17;8.00;;;3.45;;
43152;SDS011;28756;49.064;9.290;2023-09-12T02:05:43;6.80;;;3.67;;
43152;SDS011;28756;49.064;9.290;2023-09-12T02:08:09;7.18;;;3.47;;
43152;SDS011;28756;49.064;9.290;2023-09-12T02:10:35;7.75;;;3.83;;
43152;SDS011;28756;49.064;9.290;2023-09-12T02:13:00;8.75;;;3.33;;
43152;SDS011;28756;49.064;9.290;2023-09-12T02:15:26;8.07;;;3.20;;
43152;SDS011;28756;49.064;9.290;2023-09-12T02:17:52;5.55;;;3.47;;
43152;SDS011;28756;49.064;9.290;2023-09-12T02:20:17;8.55;;;3.63;;
43152;SDS011;28756;49.064;9.290;2023-09-12T02:22:44;7.18;;;3.25;;
43152;SDS011;28756;49.064;9.290;2023-09-12T02:25:10;6.53;;;3.97;;
43152;SDS011;28756;49.064;9.290;2023-09-12T02:27:36;10.25;;;4.40;;
43152;SDS011;28756;49.064;9.290;2023-09-12T02:30:02;8.10;;;3.50;;
43152;SDS011;28756;49.064;9.290;2023-09-12T02:32:28;6.35;;;3.15;;
43152;SDS011;28756;49.064;9.290;2023-09-12T02:34:54;7.07;;;3.45;;
43152;SDS011;28756;49.064;9.290;2023-09-12T02:37:22;6.32;;;3.53;;
43152;SDS011;28756;49.064;9.290;2023-09-12T02:39:47;6.03;;;3.42;;
43152;SDS011;28756;49.064;9.290;2023-09-12T02:42:13;9.52;;;3.70;;
43152;SDS011;28756;49.064;9.290;2023-09-12T02:44:39;5.80;;;3.35;;
43152;SDS011;28756;49.064;9.290;2023-09-12T02:47:07;5.78;;;3.20;;
43152;SDS011;28756;49.064;9.290;2023-09-12T02:49:33;6.70;;;3.60;;
43152;SDS011;28756;49.064;9.290;2023-09-12T02:51:58;10.13;;;3.95;;
43152;SDS011;28756;49.064;9.290;2023-09-12T02:54:24;7.28;;;3.40;;
43152;SDS011;28756;49.064;9.290;2023-09-12T02:56:50;9.95;;;3.58;;
43152;SDS011;28756;49.064;9.290;2023-09-12T02:59:15;8.48;;;4.13;;
43152;SDS011;28756;49.064;9.290;2023-09-12T03:01:41;8.98;;;3.60;;
43152;SDS011;28756;49.064;9.290;2023-09-12T03:04:07;10.00;;;4.50;;
43152;SDS011;28756;49.064;9.290;2023-09-12T03:06:33;7.30;;;3.28;;
43152;SDS011;28756;49.064;9.290;2023-09-12T03:08:58;5.45;;;3.28;;
43152;SDS011;28756;49.064;9.290;2023-09-12T03:11:27;8.85;;;3.67;;
43152;SDS011;28756;49.064;9.290;2023-09-12T03:13:53;5.80;;;3.40;;
43152;SDS011;28756;49.064;9.290;2023-09-12T03:16:18;6.65;;;3.40;;
43152;SDS011;28756;49.064;9.290;2023-09-12T03:18:44;8.25;;;3.85;;
43152;SDS011;28756;49.064;9.290;2023-09-12T03:21:10;9.05;;;4.10;;
43152;SDS011;28756;49.064;9.290;2023-09-12T03:23:38;9.68;;;4.00;;
43152;SDS011;28756;49.064;9.290;2023-09-12T03:26:04;8.32;;;3.63;;
43152;SDS011;28756;49.064;9.290;2023-09-12T03:28:30;5.65;;;3.83;;
43152;SDS011;28756;49.064;9.290;2023-09-12T03:31:07;7.43;;;3.67;;
43152;SDS011;28756;49.064;9.290;2023-09-12T03:33:39;8.13;;;3.72;;
43152;SDS011;28756;49.064;9.290;2023-09-12T03:36:06;6.03;;;3.67;;
43152;SDS011;28756;49.064;9.290;2023-09-12T03:38:33;6.40;;;3.25;;
43152;SDS011;28756;49.064;9.290;2023-09-12T03:40:59;9.25;;;3.85;;
43152;SDS011;28756;49.064;9.290;2023-09-12T03:43:26;5.90;;;3.15;;
43152;SDS011;28756;49.064;9.290;2023-09-12T03:45:52;9.02;;;3.90;;
43152;SDS011;28756;49.064;9.290;2023-09-12T03:48:18;10.40;;;3.97;;
43152;SDS011;28756;49.064;9.290;2023-09-12T03:50:44;9.18;;;3.92;;
43152;SDS011;28756;49.064;9.290;2023-09-12T03:53:10;6.88;;;3.70;;
43152;SDS011;28756;49.064;9.290;2023-09-12T03:55:36;6.30;;;3.40;;
43152;SDS011;28756;49.064;9.290;2023-09-12T03:58:02;6.07;;;3.10;;
43152;SDS011;28756;49.064;9.290;2023-09-12T04:00:28;5.82;;;3.42;;
43152;SDS011;28756;49.064;9.290;2023-09-12T04:02:54;6.65;;;3.15;;
43152;SDS011;28756;49.064;9.290;2023-09-12T04:05:20;5.70;;;3.30;;
43152;SDS011;28756;49.064;9.290;2023-09-12T04:07:45;4.35;;;3.10;;
43152;SDS011;28756;49.064;9.290;2023-09-12T04:10:11;5.18;;;3.33;;
43152;SDS011;28756;49.064;9.290;2023-09-12T04:12:37;9.48;;;3.40;;
43152;SDS011;28756;49.064;9.290;2023-09-12T04:15:03;7.60;;;4.03;;
43152;SDS011;28756;49.064;9.290;2023-09-12T04:17:29;4.55;;;3.30;;
43152;SDS011;28756;49.064;9.290;2023-09-12T04:19:54;5.95;;;3.30;;
43152;SDS011;28756;49.064;9.290;2023-09-12T04:22:20;7.00;;;3.67;;
43152;SDS011;28756;49.064;9.290;2023-09-12T04:24:46;5.28;;;3.50;;
43152;SDS011;28756;49.064;9.290;2023-09-12T04:27:12;6.47;;;3.33;;
43152;SDS011;28756;49.064;9.290;2023-09-12T04:29:38;6.50;;;3.72;;
43152;SDS011;28756;49.064;9.290;2023-09-12T04:32:04;9.95;;;3.70;;
43152;SDS011;28756;49.064;9.290;2023-09-12T04:34:30;8.02;;;3.38;;
43152;SDS011;28756;49.064;9.290;2023-09-12T04:36:56;5.63;;;3.40;;
43152;SDS011;28756;49.064;9.290;2023-09-12T04:39:22;9.50;;;3.88;;
43152;SDS011;28756;49.064;9.290;2023-09-12T04:41:48;5.68;;;3.13;;
43152;SDS011;28756;49.064;9.290;2023-09-12T04:44:14;5.10;;;3.00;;
43152;SDS011;28756;49.064;9.290;2023-09-12T04:46:40;5.88;;;3.85;;
43152;SDS011;28756;49.064;9.290;2023-09-12T04:49:05;7.47;;;3.50;;
43152;SDS011;28756;49.064;9.290;2023-09-12T04:51:31;9.25;;;3.90;;
43152;SDS011;28756;49.064;9.290;2023-09-12T04:53:57;6.53;;;3.50;;
43152;SDS011;28756;49.064;9.290;2023-09-12T04:56:22;10.65;;;3.78;;
43152;SDS011;28756;49.064;9.290;2023-09-12T04:58:51;5.07;;;3.33;;
43152;SDS011;28756;49.064;9.290;2023-09-12T05:01:17;5.35;;;3.40;;
43152;SDS011;28756;49.064;9.290;2023-09-12T05:03:43;7.78;;;3.67;;
43152;SDS011;28756;49.064;9.290;2023-09-12T05:06:09;6.35;;;3.78;;
43152;SDS011;28756;49.064;9.290;2023-09-12T05:08:36;6.55;;;3.60;;
43152;SDS011;28756;49.064;9.290;2023-09-12T05:11:01;6.50;;;3.72;;
43152;SDS011;28756;49.064;9.290;2023-09-12T05:13:28;6.47;;;3.28;;
43152;SDS011;28756;49.064;9.290;2023-09-12T05:15:54;9.63;;;3.80;;
43152;SDS011;28756;49.064;9.290;2023-09-12T05:18:21;8.40;;;3.55;;
43152;SDS011;28756;49.064;9.290;2023-09-12T05:20:47;6.80;;;3.92;;
43152;SDS011;28756;49.064;9.290;2023-09-12T05:23:13;5.68;;;3.45;;
43152;SDS011;28756;49.064;9.290;2023-09-12T05:25:39;7.45;;;3.58;;
43152;SDS011;28756;49.064;9.290;2023-09-12T05:28:04;7.22;;;3.30;;
43152;SDS011;28756;49.064;9.290;2023-09-12T05:30:30;8.07;;;3.53;;
43152;SDS011;28756;49.064;9.290;2023-09-12T05:32:56;11.15;;;3.97;;
43152;SDS011;28756;49.064;9.290;2023-09-12T05:35:22;7.00;;;4.15;;
43152;SDS011;28756;49.064;9.290;2023-09-12T05:37:47;11.73;;;3.97;;
43152;SDS011;28756;49.064;9.290;2023-09-12T05:40:13;5.72;;;3.53;;
43152;SDS011;28756;49.064;9.290;2023-09-12T05:42:39;5.32;;;3.42;;
43152;SDS011;28756;49.064;9.290;2023-09-12T05:45:05;7.95;;;4.40;;
43152;SDS011;28756;49.064;9.290;2023-09-12T05:47:32;5.57;;;3.33;;
43152;SDS011;28756;49.064;9.290;2023-09-12T05:49:57;5.70;;;3.53;;
43152;SDS011;28756;49.064;9.290;2023-09-12T05:52:24;7.30;;;3.83;;
43152;SDS011;28756;49.064;9.290;2023-09-12T05:54:50;7.15;;;3.35;;
43152;SDS011;28756;49.064;9.290;2023-09-12T05:57:16;7.03;;;3.97;;
43152;SDS011;28756;49.064;9.290;2023-09-12T05:59:41;6.18;;;3.63;;
43152;SDS011;28756;49.064;9.290;2023-09-12T06:02:07;8.70;;;3.65;;
43152;SDS011;28756;49.064;9.290;2023-09-12T06:04:36;7.13;;;4.15;;
43152;SDS011;28756;49.064;9.290;2023-09-12T06:07:02;9.40;;;4.57;;
43152;SDS011;28756;49.064;9.290;2023-09-12T06:09:28;7.45;;;4.05;;
43152;SDS011;28756;49.064;9.290;2023-09-12T06:11:54;7.13;;;3.60;;
43152;SDS011;28756;49.064;9.290;2023-09-12T06:14:20;6.38;;;3.92;;
43152;SDS011;28756;49.064;9.290;2023-09-12T06:16:46;5.88;;;3.17;;
43152;SDS011;28756;49.064;9.290;2023-09-12T06:19:12;7.45;;;3.78;;
43152;SDS011;28756;49.064;9.290;2023-09-12T06:21:39;7.22;;;3.28;;
43152;SDS011;28756;49.064;9.290;2023-09-12T06:24:12;7.97;;;3.65;;
43152;SDS011;28756;49.064;9.290;2023-09-12T06:26:44;6.15;;;3.60;;
43152;SDS011;28756;49.064;9.290;2023-09-12T06:29:10;8.10;;;3.53;;
43152;SDS011;28756;49.064;9.290;2023-09-12T06:31:36;8.32;;;3.63;;
43152;SDS011;28756;49.064;9.290;2023-09-12T06:34:02;7.93;;;3.58;;
43152;SDS011;28756;49.064;9.290;2023-09-12T06:36:28;5.85;;;3.55;;
43152;SDS011;28756;49.064;9.290;2023-09-12T06:38:57;8.85;;;3.80;;
43152;SDS011;28756;49.064;9.290;2023-09-12T06:41:24;9.95;;;4.80;;
43152;SDS011;28756;49.064;9.290;2023-09-12T06:43:51;9.85;;;5.22;;
43152;SDS011;28756;49.064;9.290;2023-09-12T06:46:16;12.50;;;4.95;;
43152;SDS011;28756;49.064;9.290;2023-09-12T06:48:43;11.45;;;4.47;;
43152;SDS011;28756;49.064;9.290;2023-09-12T06:51:10;7.47;;;4.38;;
43152;SDS011;28756;49.064;9.290;2023-09-12T06:53:37;7.30;;;4.10;;
43152;SDS011;28756;49.064;9.290;2023-09-12T06:56:06;7.82;;;3.90;;
43152;SDS011;28756;49.064;9.290;2023-09-12T06:58:31;8.38;;;4.00;;
43152;SDS011;28756;49.064;9.290;2023-09-12T07:01:05;7.88;;;4.00;;
43152;SDS011;28756;49.064;9.290;2023-09-12T07:03:35;9.77;;;4.88;;
43152;SDS011;28756;49.064;9.290;2023-09-12T07:06:02;10.25;;;4.53;;
43152;SDS011;28756;49.064;9.290;2023-09-12T07:08:29;5.13;;;3.83;;
43152;SDS011;28756;49.064;9.290;2023-09-12T07:10:56;11.23;;;3.88;;
43152;SDS011;28756;49.064;9.290;2023-09-12T07:13:22;9.10;;;4.28;;
43152;SDS011;28756;49.064;9.290;2023-09-12T07:15:49;8.70;;;4.60;;
43152;SDS011;28756;49.064;9.290;2023-09-12T07:18:15;9.23;;;4.57;;
43152;SDS011;28756;49.064;9.290;2023-09-12T07:20:42;6.85;;;3.83;;
43152;SDS011;28756;49.064;9.290;2023-09-12T07:23:07;10.65;;;4.28;;
43152;SDS011;28756;49.064;9.290;2023-09-12T07:25:40;7.35;;;4.15;;
43152;SDS011;28756;49.064;9.290;2023-09-12T07:28:07;6.95;;;3.88;;
43152;SDS011;28756;49.064;9.290;2023-09-12T07:30:33;12.30;;;4.40;;
43152;SDS011;28756;49.064;9.290;2023-09-12T07:32:59;7.28;;;4.18;;
43152;SDS011;28756;49.064;9.290;2023-09-12T07:35:24;5.97;;;3.85;;
43152;SDS011;28756;49.064;9.290;2023-09-12T07:37:50;8.45;;;4.53;;
43152;SDS011;28756;49.064;9.290;2023-09-12T07:40:16;7.60;;;4.45;;
43152;SDS011;28756;49.064;9.290;2023-09-12T07:42:41;7.13;;;4.05;;
43152;SDS011;28756;49.064;9.290;2023-09-12T07:45:07;7.60;;;4.15;;
43152;SDS011;28756;49.064;9.290;2023-09-12T07:47:34;8.32;;;4.10;;
43152;SDS011;28756;49.064;9.290;2023-09-12T07:49:59;7.68;;;4.35;;
43152;SDS011;28756;49.064;9.290;2023-09-12T07:52:28;8.60;;;4.53;;
43152;SDS011;28756;49.064;9.290;2023-09-12T07:55:01;6.07;;;4.00;;
43152;SDS011;28756;49.064;9.290;2023-09-12T07:57:28;9.90;;;4.65;;
43152;SDS011;28756;49.064;9.290;2023-09-12T07:59:55;8.52;;;4.57;;
43152;SDS011;28756;49.064;9.290;2023-09-12T08:02:21;8.98;;;4.43;;
43152;SDS011;28756;49.064;9.290;2023-09-12T08:04:48;8.88;;;5.40;;
43152;SDS011;28756;49.064;9.290;2023-09-12T08:07:15;8.88;;;5.00;;
43152;SDS011;28756;49.064;9.290;2023-09-12T08:09:49;8.02;;;5.10;;
43152;SDS011;28756;49.064;9.290;2023-09-12T08:12:19;7.00;;;4.72;;
43152;SDS011;28756;49.064;9.290;2023-09-12T08:14:47;8.55;;;4.82;;
43152;SDS011;28756;49.064;9.290;2023-09-12T08:17:13;7.05;;;4.90;;
43152;SDS011;28756;49.064;9.290;2023-09-12T08:19:39;14.48;;;6.22;;
43152;SDS011;28756;49.064;9.290;2023-09-12T08:22:05;9.35;;;5.47;;
43152;SDS011;28756;49.064;9.290;2023-09-12T08:24:33;11.80;;;5.68;;
43152;SDS011;28756;49.064;9.290;2023-09-12T08:27:02;8.43;;;5.40;;
43152;SDS011;28756;49.064;9.290;2023-09-12T08:29:29;7.00;;;5.18;;
43152;SDS011;28756;49.064;9.290;2023-09-12T08:31:57;8.23;;;5.20;;
43152;SDS011;28756;49.064;9.290;2023-09-12T08:34:23;6.57;;;5.40;;
43152;SDS011;28756;49.064;9.290;2023-09-12T08:36:49;5.82;;;4.95;;
43152;SDS011;28756;49.064;9.290;2023-09-12T08:39:15;11.10;;;5.47;;
43152;SDS011;28756;49.064;9.290;2023-09-12T08:41:43;6.68;;;5.13;;
43152;SDS011;28756;49.064;9.290;2023-09-12T08:44:11;7.55;;;5.15;;
43152;SDS011;28756;49.064;9.290;2023-09-12T08:46:39;7.45;;;6.00;;
43152;SDS011;28756;49.064;9.290;2023-09-12T08:49:09;9.98;;;5.95;;
43152;SDS011;28756;49.064;9.290;2023-09-12T08:51:36;9.13;;;4.90;;
43152;SDS011;28756;49.064;9.290;2023-09-12T08:54:04;9.38;;;5.68;;
43152;SDS011;28756;49.064;9.290;2023-09-12T08:56:30;9.45;;;5.75;;
43152;SDS011;28756;49.064;9.290;2023-09-12T08:58:59;8.18;;;5.10;;
43152;SDS011;28756;49.064;9.290;2023-09-12T09:01:26;9.30;;;5.18;;
43152;SDS011;28756;49.064;9.290;2023-09-12T09:03:56;8.15;;;5.47;;
43152;SDS011;28756;49.064;9.290;2023-09-12T09:06:22;10.85;;;5.60;;
43152;SDS011;28756;49.064;9.290;2023-09-12T09:08:49;9.75;;;5.68;;
43152;SDS011;28756;49.064;9.290;2023-09-12T09:11:16;9.65;;;6.00;;
43152;SDS011;28756;49.064;9.290;2023-09-12T09:13:42;7.65;;;5.43;;
43152;SDS011;28756;49.064;9.290;2023-09-12T09:16:12;9.02;;;6.05;;
43152;SDS011;28756;49.064;9.290;2023-09-12T09:21:18;10.00;;;5.45;;
43152;SDS011;28756;49.064;9.290;2023-09-12T09:23:47;8.07;;;5.28;;
43152;SDS011;28756;49.064;9.290;2023-09-12T09:26:13;10.50;;;5.28;;
43152;SDS011;28756;49.064;9.290;2023-09-12T09:28:39;7.95;;;5.00;;
43152;SDS011;28756;49.064;9.290;2023-09-12T09:31:05;9.30;;;5.50;;
43152;SDS011;28756;49.064;9.290;2023-09-12T09:33:39;8.75;;;5.50;;
43152;SDS011;28756;49.064;9.290;2023-09-12T09:36:06;7.80;;;5.43;;
43152;SDS011;28756;49.064;9.290;2023-09-12T09:38:35;5.32;;;4.80;;
43152;SDS011;28756;49.064;9.290;2023-09-12T09:41:05;10.05;;;5.03;;
43152;SDS011;28756;49.064;9.290;2023-09-12T09:43:31;8.30;;;5.10;;
43152;SDS011;28756;49.064;9.290;2023-09-12T09:45:58;8.00;;;4.85;;
43152;SDS011;28756;49.064;9.290;2023-09-12T09:48:24;9.65;;;5.45;;
43152;SDS011;28756;49.064;9.290;2023-09-12T09:50:52;7.30;;;5.00;;
43152;SDS011;28756;49.064;9.290;2023-09-12T09:53:28;6.80;;;4.70;;
43152;SDS011;28756;49.064;9.290;2023-09-12T09:58:41;6.65;;;5.10;;
43152;SDS011;28756;49.064;9.290;2023-09-12T10:01:17;7.65;;;5.10;;
43152;SDS011;28756;49.064;9.290;2023-09-12T10:03:45;8.05;;;4.72;;
43152;SDS011;28756;49.064;9.290;2023-09-12T10:06:16;5.68;;;4.80;;
43152;SDS011;28756;49.064;9.290;2023-09-12T10:08:44;7.80;;;5.43;;
43152;SDS011;28756;49.064;9.290;2023-09-12T10:11:15;6.95;;;4.68;;
43152;SDS011;28756;49.064;9.290;2023-09-12T10:13:46;6.47;;;5.20;;
43152;SDS011;28756;49.064;9.290;2023-09-12T10:16:27;10.00;;;5.38;;
43152;SDS011;28756;49.064;9.290;2023-09-12T10:24:31;8.73;;;4.50;;
43152;SDS011;28756;49.064;9.290;2023-09-12T10:26:59;6.15;;;5.18;;
43152;SDS011;28756;49.064;9.290;2023-09-12T10:29:27;8.43;;;4.80;;
43152;SDS011;28756;49.064;9.290;2023-09-12T10:31:53;6.05;;;4.43;;
43152;SDS011;28756;49.064;9.290;2023-09-12T10:34:19;6.55;;;4.35;;
43152;SDS011;28756;49.064;9.290;2023-09-12T10:36:49;6.82;;;4.25;;
43152;SDS011;28756;49.064;9.290;2023-09-12T10:39:16;7.03;;;4.72;;
43152;SDS011;28756;49.064;9.290;2023-09-12T10:41:45;5.10;;;4.20;;
43152;SDS011;28756;49.064;9.290;2023-09-12T10:44:16;6.07;;;4.30;;
43152;SDS011;28756;49.064;9.290;2023-09-12T10:46:43;6.15;;;4.57;;
43152;SDS011;28756;49.064;9.290;2023-09-12T10:49:14;8.00;;;4.78;;
43152;SDS011;28756;49.064;9.290;2023-09-12T10:51:41;4.93;;;4.43;;
43152;SDS011;28756;49.064;9.290;2023-09-12T10:54:09;6.53;;;3.80;;
43152;SDS011;28756;49.064;9.290;2023-09-12T10:56:40;7.38;;;4.97;;
43152;SDS011;28756;49.064;9.290;2023-09-12T11:01:35;6.38;;;4.75;;
43152;SDS011;28756;49.064;9.290;2023-09-12T11:06:48;6.55;;;4.47;;
43152;SDS011;28756;49.064;9.290;2023-09-12T11:09:15;6.07;;;4.03;;
43152;SDS011;28756;49.064;9.290;2023-09-12T11:11:43;4.90;;;4.40;;
43152;SDS011;28756;49.064;9.290;2023-09-12T11:14:30;6.57;;;4.50;;
43152;SDS011;28756;49.064;9.290;2023-09-12T11:17:30;6.97;;;4.07;;
43152;SDS011;28756;49.064;9.290;2023-09-12T11:19:50;4.65;;;3.78;;
43152;SDS011;28756;49.064;9.290;2023-09-12T11:22:21;9.77;;;4.43;;
43152;SDS011;28756;49.064;9.290;2023-09-12T11:24:56;5.63;;;4.35;;
43152;SDS011;28756;49.064;9.290;2023-09-12T11:27:25;6.50;;;4.45;;
43152;SDS011;28756;49.064;9.290;2023-09-12T11:30:20;7.10;;;4.40;;
43152;SDS011;28756;49.064;9.290;2023-09-12T11:32:53;7.05;;;4.30;;
43152;SDS011;28756;49.064;9.290;2023-09-12T11:35:23;5.57;;;4.10;;
43152;SDS011;28756;49.064;9.290;2023-09-12T11:37:54;4.07;;;3.67;;
43152;SDS011;28756;49.064;9.290;2023-09-12T11:40:41;7.05;;;4.60;;
43152;SDS011;28756;49.064;9.290;2023-09-12T11:43:23;6.70;;;4.20;;
43152;SDS011;28756;49.064;9.290;2023-09-12T11:45:50;8.02;;;4.82;;
43152;SDS011;28756;49.064;9.290;2023-09-12T11:48:18;9.05;;;4.80;;
43152;SDS011;28756;49.064;9.290;2023-09-12T11:50:49;7.10;;;4.68;;
43152;SDS011;28756;49.064;9.290;2023-09-12T11:53:21;5.45;;;4.43;;
43152;SDS011;28756;49.064;9.290;2023-09-12T11:55:56;5.32;;;4.68;;
43152;SDS011;28756;49.064;9.290;2023-09-12T11:58:24;6.45;;;4.43;;
43152;SDS011;28756;49.064;9.290;2023-09-12T12:00:53;4.63;;;4.18;;
43152;SDS011;28756;49.064;9.290;2023-09-12T12:03:21;5.07;;;4.47;;
43152;SDS011;28756;49.064;9.290;2023-09-12T12:05:48;8.05;;;4.40;;
43152;SDS011;28756;49.064;9.290;2023-09-12T12:08:15;4.50;;;4.05;;
43152;SDS011;28756;49.064;9.290;2023-09-12T12:10:43;5.15;;;4.60;;
43152;SDS011;28756;49.064;9.290;2023-09-12T12:13:15;4.65;;;4.10;;
43152;SDS011;28756;49.064;9.290;2023-09-12T12:15:42;6.47;;;4.53;;
43152;SDS011;28756;49.064;9.290;2023-09-12T12:18:08;4.78;;;4.13;;
43152;SDS011;28756;49.064;9.290;2023-09-12T12:20:34;6.63;;;4.53;;
43152;SDS011;28756;49.064;9.290;2023-09-12T12:23:00;5.22;;;4.13;;
43152;SDS011;28756;49.064;9.290;2023-09-12T12:25:26;7.18;;;4.35;;
43152;SDS011;28756;49.064;9.290;2023-09-12T12:27:52;6.22;;;4.32;;
43152;SDS011;28756;49.064;9.290;2023-09-12T12:30:17;5.13;;;4.22;;
43152;SDS011;28756;49.064;9.290;2023-09-12T12:32:45;4.63;;;3.78;;
43152;SDS011;28756;49.064;9.290;2023-09-12T12:35:18;6.90;;;4.20;;
43152;SDS011;28756;49.064;9.290;2023-09-12T12:37:47;5.75;;;4.90;;
43152;SDS011;28756;49.064;9.290;2023-09-12T12:40:15;5.28;;;4.32;;
43152;SDS011;28756;49.064;9.290;2023-09-12T12:42:42;5.18;;;3.88;;
43152;SDS011;28756;49.064;9.290;2023-09-12T12:45:12;4.70;;;4.30;;
43152;SDS011;28756;49.064;9.290;2023-09-12T12:47:44;5.40;;;4.20;;
43152;SDS011;28756;49.064;9.290;2023-09-12T12:50:14;5.70;;;4.15;;
43152;SDS011;28756;49.064;9.290;2023-09-12T12:52:41;7.45;;;4.30;;
43152;SDS011;28756;49.064;9.290;2023-09-12T12:55:09;5.95;;;4.75;;
43152;SDS011;28756;49.064;9.290;2023-09-12T12:57:37;4.75;;;4.15;;
43152;SDS011;28756;49.064;9.290;2023-09-12T13:00:07;6.20;;;4.72;;
43152;SDS011;28756;49.064;9.290;2023-09-12T13:02:41;6.60;;;4.90;;
43152;SDS011;28756;49.064;9.290;2023-09-12T13:07:55;8.38;;;4.70;;
43152;SDS011;28756;49.064;9.290;2023-09-12T13:10:22;4.60;;;4.10;;
43152;SDS011;28756;49.064;9.290;2023-09-12T13:12:48;7.57;;;4.45;;
43152;SDS011;28756;49.064;9.290;2023-09-12T13:15:15;6.55;;;4.03;;
43152;SDS011;28756;49.064;9.290;2023-09-12T13:17:42;5.13;;;4.15;;
43152;SDS011;28756;49.064;9.290;2023-09-12T13:20:08;4.55;;;4.00;;
43152;SDS011;28756;49.064;9.290;2023-09-12T13:22:35;5.40;;;3.78;;
43152;SDS011;28756;49.064;9.290;2023-09-12T13:25:01;4.15;;;3.70;;
43152;SDS011;28756;49.064;9.290;2023-09-12T13:27:27;6.63;;;3.88;;
43152;SDS011;28756;49.064;9.290;2023-09-12T13:29:54;9.43;;;4.70;;
43152;SDS011;28756;49.064;9.290;2023-09-12T13:32:19;6.22;;;4.80;;
43152;SDS011;28756;49.064;9.290;2023-09-12T13:34:45;5.28;;;3.95;;
43152;SDS011;28756;49.064;9.290;2023-09-12T13:37:11;6.13;;;4.13;;
43152;SDS011;28756;49.064;9.290;2023-09-12T13:39:36;6.65;;;4.80;;
43152;SDS011;28756;49.064;9.290;2023-09-12T13:42:02;6.88;;;4.07;;
43152;SDS011;28756;49.064;9.290;2023-09-12T13:44:30;8.30;;;4.63;;
43152;SDS011;28756;49.064;9.290;2023-09-12T13:46:56;5.05;;;3.97;;
43152;SDS011;28756;49.064;9.290;2023-09-12T13:49:22;5.10;;;4.50;;
43152;SDS011;28756;49.064;9.290;2023-09-12T13:51:47;6.57;;;4.63;;
43152;SDS011;28756;49.064;9.290;2023-09-12T13:54:13;7.32;;;5.05;;
43152;SDS011;28756;49.064;9.290;2023-09-12T13:56:42;6.25;;;5.10;;
43152;SDS011;28756;49.064;9.290;2023-09-12T13:59:09;5.32;;;4.28;;
43152;SDS011;28756;49.064;9.290;2023-09-12T14:01:36;4.53;;;4.10;;
43152;SDS011;28756;49.064;9.290;2023-09-12T14:04:03;5.20;;;4.30;;
43152;SDS011;28756;49.064;9.290;2023-09-12T14:06:29;10.13;;;5.13;;
43152;SDS011;28756;49.064;9.290;2023-09-12T14:08:55;6.22;;;4.78;;
43152;SDS011;28756;49.064;9.290;2023-09-12T14:11:21;4.05;;;3.50;;
43152;SDS011;28756;49.064;9.290;2023-09-12T14:13:46;6.00;;;4.13;;
43152;SDS011;28756;49.064;9.290;2023-09-12T14:16:13;5.28;;;3.90;;
43152;SDS011;28756;49.064;9.290;2023-09-12T14:18:38;7.10;;;4.60;;
43152;SDS011;28756;49.064;9.290;2023-09-12T14:21:04;5.22;;;4.70;;
43152;SDS011;28756;49.064;9.290;2023-09-12T14:23:30;6.00;;;4.22;;
43152;SDS011;28756;49.064;9.290;2023-09-12T14:25:55;4.78;;;4.05;;
43152;SDS011;28756;49.064;9.290;2023-09-12T14:28:21;4.60;;;3.92;;
43152;SDS011;28756;49.064;9.290;2023-09-12T14:30:47;4.63;;;3.97;;
43152;SDS011;28756;49.064;9.290;2023-09-12T14:33:14;4.32;;;3.90;;
43152;SDS011;28756;49.064;9.290;2023-09-12T14:35:42;6.28;;;3.80;;
43152;SDS011;28756;49.064;9.290;2023-09-12T14:38:08;3.97;;;3.28;;
43152;SDS011;28756;49.064;9.290;2023-09-12T14:40:34;4.10;;;3.70;;
43152;SDS011;28756;49.064;9.290;2023-09-12T14:43:00;7.40;;;4.38;;
43152;SDS011;28756;49.064;9.290;2023-09-12T14:45:27;4.60;;;3.83;;
43152;SDS011;28756;49.064;9.290;2023-09-12T14:47:53;5.30;;;3.90;;
43152;SDS011;28756;49.064;9.290;2023-09-12T14:50:20;6.10;;;4.00;;
43152;SDS011;28756;49.064;9.290;2023-09-12T14:52:49;4.38;;;3.67;;
43152;SDS011;28756;49.064;9.290;2023-09-12T14:55:15;5.10;;;4.40;;
43152;SDS011;28756;49.064;9.290;2023-09-12T14:57:41;4.57;;;3.95;;
43152;SDS011;28756;49.064;9.290;2023-09-12T15:00:07;4.95;;;3.90;;
43152;SDS011;28756;49.064;9.290;2023-09-12T15:02:33;4.03;;;3.70;;
43152;SDS011;28756;49.064;9.290;2023-09-12T15:04:59;4.50;;;3.55;;
43152;SDS011;28756;49.064;9.290;2023-09-12T15:07:29;6.35;;;4.00;;
43152;SDS011;28756;49.064;9.290;2023-09-12T15:09:55;6.75;;;4.28;;
43152;SDS011;28756;49.064;9.290;2023-09-12T15:12:22;4.93;;;3.90;;
43152;SDS011;28756;49.064;9.290;2023-09-12T15:14:47;4.72;;;3.80;;